createdAt,value
2022-11-26T00:00:43.311Z,8.02
2022-11-26T00:04:45.405Z,8.08
2022-11-26T00:08:47.685Z,8.02
2022-11-26T00:12:49.941Z,7.96
2022-11-26T00:16:52.033Z,7.91
2022-11-26T00:20:57.051Z,7.87
2022-11-26T00:24:59.216Z,7.80
2022-11-26T00:29:01.377Z,7.75
2022-11-26T00:33:03.376Z,7.66
2022-11-26T00:37:05.389Z,7.58
2022-11-26T00:41:16.970Z,7.51
2022-11-26T00:45:22.393Z,7.45
2022-11-26T00:49:24.404Z,7.39
2022-11-26T00:53:26.793Z,7.33
2022-11-26T00:57:29.044Z,7.30
2022-11-26T01:01:32.790Z,7.24
2022-11-26T01:05:35.599Z,7.19
2022-11-26T01:09:38.818Z,7.19
2022-11-26T01:13:42.499Z,7.21
2022-11-26T01:17:44.691Z,7.15
2022-11-26T01:21:46.712Z,7.08
2022-11-26T01:25:48.807Z,7.04
2022-11-26T01:29:50.838Z,7.00
2022-11-26T01:33:53.423Z,6.99
2022-11-26T01:37:55.877Z,6.95
2022-11-26T01:42:22.004Z,6.93
2022-11-26T01:46:26.354Z,6.87
2022-11-26T01:50:31.335Z,6.86
2022-11-26T01:54:36.722Z,6.81
2022-11-26T01:58:53.999Z,6.81
2022-11-26T02:02:56.472Z,6.83
2022-11-26T02:06:59.438Z,6.93
2022-11-26T02:11:20.152Z,7.06
2022-11-26T02:15:26.143Z,7.19
2022-11-26T02:19:55.988Z,7.21
2022-11-26T02:24:26.132Z,7.21
2022-11-26T02:28:50.132Z,7.17
2022-11-26T02:33:02.509Z,7.10
2022-11-26T02:37:12.871Z,7.03
2022-11-26T02:41:14.887Z,6.96
2022-11-26T02:45:28.373Z,6.90
2022-11-26T02:49:31.992Z,6.95
2022-11-26T02:53:35.433Z,6.96
2022-11-26T02:57:48.376Z,6.93
2022-11-26T03:02:11.512Z,6.95
2022-11-26T03:06:15.045Z,6.88
2022-11-26T03:10:20.337Z,6.83
2022-11-26T03:14:22.460Z,6.74
2022-11-26T03:18:24.774Z,6.68
2022-11-26T03:22:26.843Z,6.62
2022-11-26T03:26:28.837Z,6.66
2022-11-26T03:30:30.909Z,6.68
2022-11-26T03:34:33.104Z,6.69
2022-11-26T03:38:35.330Z,6.67
2022-11-26T03:42:37.335Z,6.63
2022-11-26T03:46:40.050Z,6.59
2022-11-26T03:50:42.182Z,6.55
2022-11-26T03:54:44.193Z,6.50
2022-11-26T03:58:46.212Z,6.47
2022-11-26T04:02:48.248Z,6.36
2022-11-26T04:06:50.418Z,6.35
2022-11-26T04:10:52.418Z,6.31
2022-11-26T04:14:54.454Z,6.27
2022-11-26T04:18:56.493Z,6.23
2022-11-26T04:22:58.480Z,6.17
2022-11-26T04:27:00.490Z,6.08
2022-11-26T04:31:02.567Z,5.90
2022-11-26T04:35:04.996Z,5.75
2022-11-26T04:39:07.071Z,5.68
2022-11-26T04:43:09.098Z,5.58
2022-11-26T04:47:11.102Z,5.42
2022-11-26T04:51:13.118Z,5.35
2022-11-26T04:55:16.724Z,5.25
2022-11-26T04:59:18.738Z,5.16
2022-11-26T05:03:20.804Z,5.04
2022-11-26T05:07:22.887Z,4.99
2022-11-26T05:11:25.054Z,4.96
2022-11-26T05:15:27.127Z,4.86
2022-11-26T05:19:29.182Z,4.75
2022-11-26T05:23:31.221Z,4.72
2022-11-26T05:27:33.525Z,4.65
2022-11-26T05:31:35.561Z,4.63
2022-11-26T05:35:38.172Z,4.43
2022-11-26T05:39:40.730Z,4.19
2022-11-26T05:43:42.801Z,4.18
2022-11-26T05:47:44.852Z,4.17
2022-11-26T05:51:46.833Z,4.16
2022-11-26T05:55:48.841Z,4.15
2022-11-26T05:59:50.827Z,4.04
2022-11-26T06:03:52.929Z,3.88
2022-11-26T06:07:55.201Z,3.84
2022-11-26T06:11:57.350Z,3.84
2022-11-26T06:15:59.650Z,3.64
2022-11-26T06:20:01.749Z,3.45
2022-11-26T06:24:04.070Z,3.36
2022-11-26T06:28:06.109Z,3.34
2022-11-26T06:32:08.179Z,3.36
2022-11-26T06:36:10.665Z,3.37
2022-11-26T06:40:17.700Z,3.43
2022-11-26T06:44:19.617Z,3.43
2022-11-26T06:48:25.464Z,3.47
2022-11-26T06:52:27.482Z,3.65
2022-11-26T06:56:29.498Z,3.86
2022-11-26T07:00:31.531Z,4.05
2022-11-26T07:04:33.528Z,4.12
2022-11-26T07:08:35.546Z,4.27
2022-11-26T07:12:37.561Z,4.44
2022-11-26T07:16:39.602Z,4.61
2022-11-26T07:20:41.702Z,4.77
2022-11-26T07:24:43.713Z,4.85
2022-11-26T07:28:47.254Z,4.98
2022-11-26T07:32:49.363Z,5.13
2022-11-26T07:36:55.323Z,5.25
2022-11-26T07:41:13.410Z,5.33
2022-11-26T07:45:15.644Z,5.43
2022-11-26T07:49:17.685Z,5.45
2022-11-26T07:53:19.739Z,5.56
2022-11-26T07:57:22.910Z,5.58
2022-11-26T08:01:29.896Z,5.62
2022-11-26T08:05:32.007Z,5.52
2022-11-26T08:09:34.160Z,5.47
2022-11-26T08:13:36.183Z,5.56
2022-11-26T08:17:38.202Z,5.59
2022-11-26T08:21:40.821Z,5.59
2022-11-26T08:26:06.027Z,5.64
2022-11-26T08:30:06.176Z,5.73
2022-11-26T08:34:08.330Z,6.11
2022-11-26T08:38:10.355Z,6.43
2022-11-26T08:42:12.664Z,6.72
2022-11-26T08:46:14.798Z,6.83
2022-11-26T08:50:17.061Z,6.89
2022-11-26T08:54:19.184Z,6.98
2022-11-26T08:58:21.263Z,7.06
2022-11-26T09:02:23.347Z,7.21
2022-11-26T09:06:27.709Z,7.36
2022-11-26T09:10:29.867Z,7.49
2022-11-26T09:14:40.111Z,7.61
2022-11-26T09:18:42.609Z,7.72
2022-11-26T09:22:44.617Z,7.82
2022-11-26T09:26:48.303Z,7.94
2022-11-26T09:30:50.360Z,8.12
2022-11-26T09:34:52.702Z,8.28
2022-11-26T09:38:55.972Z,8.36
2022-11-26T09:43:32.332Z,8.46
2022-11-26T09:47:41.559Z,8.55
2022-11-26T09:51:46.735Z,8.62
2022-11-26T09:55:51.813Z,8.64
2022-11-26T09:59:55.813Z,8.60
2022-11-26T10:03:58.846Z,8.63
2022-11-26T10:08:14.411Z,8.74
2022-11-26T10:12:50.308Z,8.90
2022-11-26T10:17:21.938Z,9.00
2022-11-26T10:21:57.180Z,9.11
2022-11-26T10:25:55.250Z,9.22
2022-11-26T10:30:01.520Z,9.22
2022-11-26T10:34:12.597Z,9.25
2022-11-26T10:38:14.639Z,9.32
2022-11-26T10:42:19.608Z,9.40
2022-11-26T10:46:35.926Z,9.46
2022-11-26T10:50:47.878Z,9.50
2022-11-26T10:55:07.716Z,9.53
2022-11-26T10:59:18.568Z,9.63
2022-11-26T11:04:06.097Z,9.77
2022-11-26T11:07:55.203Z,9.93
2022-11-26T11:12:19.825Z,10.08
2022-11-26T11:16:31.108Z,10.20
2022-11-26T11:20:37.015Z,10.24
2022-11-26T11:24:44.983Z,10.23
2022-11-26T11:28:53.078Z,10.21
2022-11-26T11:32:57.182Z,10.18
2022-11-26T11:37:00.841Z,10.10
2022-11-26T11:41:10.763Z,9.99
2022-11-26T11:45:38.998Z,9.96
2022-11-26T11:50:02.498Z,9.95
2022-11-26T11:54:18.641Z,10.00
2022-11-26T11:58:32.887Z,9.93
2022-11-26T12:03:14.053Z,9.91
2022-11-26T12:07:29.498Z,9.93
2022-11-26T12:11:34.558Z,9.88
2022-11-26T12:15:53.743Z,9.83
2022-11-26T12:20:14.778Z,9.85
2022-11-26T12:24:36.737Z,9.86
2022-11-26T12:28:51.324Z,9.87
2022-11-26T12:33:07.355Z,9.77
2022-11-26T12:37:19.989Z,9.77
2022-11-26T12:41:28.720Z,9.73
2022-11-26T12:46:00.440Z,9.81
2022-11-26T12:50:35.214Z,9.88
2022-11-26T12:55:12.463Z,9.92
2022-11-26T12:59:37.322Z,9.93
2022-11-26T13:03:40.768Z,9.89
2022-11-26T13:07:49.017Z,9.93
2022-11-26T13:12:04.506Z,9.95
2022-11-26T13:16:26.542Z,9.94
2022-11-26T13:20:47.661Z,9.88
2022-11-26T13:25:27.331Z,9.69
2022-11-26T13:29:50.810Z,9.38
2022-11-26T13:33:55.772Z,9.26
2022-11-26T13:38:19.733Z,9.13
2022-11-26T13:42:36.426Z,8.95
2022-11-26T13:47:01.116Z,8.68
2022-11-26T13:51:33.099Z,8.39
2022-11-26T13:55:44.264Z,8.23
2022-11-26T13:59:47.971Z,8.34
2022-11-26T14:03:50.449Z,8.29
2022-11-26T14:08:31.100Z,8.23
2022-11-26T14:13:04.323Z,8.35
2022-11-26T14:17:18.399Z,8.47
2022-11-26T14:21:21.460Z,8.45
2022-11-26T14:25:38.946Z,8.38
2022-11-26T14:29:41.055Z,8.26
2022-11-26T14:33:45.207Z,8.19
2022-11-26T14:37:53.264Z,8.04
2022-11-26T14:42:03.770Z,7.99
2022-11-26T14:46:17.287Z,7.91
2022-11-26T14:50:23.439Z,7.93
2022-11-26T14:54:31.602Z,7.96
2022-11-26T14:58:41.997Z,7.88
2022-11-26T15:02:48.258Z,7.66
2022-11-26T15:06:50.930Z,7.33
2022-11-26T15:11:07.452Z,7.11
2022-11-26T15:15:15.786Z,7.03
2022-11-26T15:19:20.086Z,6.94
2022-11-26T15:23:30.951Z,6.95
2022-11-26T15:27:47.881Z,7.05
2022-11-26T15:31:49.854Z,7.15
2022-11-26T15:35:57.304Z,7.30
2022-11-26T15:40:18.939Z,7.50
2022-11-26T15:44:25.020Z,7.47
2022-11-26T15:48:52.085Z,7.53
2022-11-26T15:52:59.457Z,7.63
2022-11-26T15:57:17.893Z,7.69
2022-11-26T16:01:24.430Z,7.72
2022-11-26T16:05:34.552Z,7.82
2022-11-26T16:09:36.672Z,7.86
2022-11-26T16:13:38.671Z,7.95
2022-11-26T16:17:40.713Z,8.02
2022-11-26T16:21:49.408Z,8.02
2022-11-26T16:26:10.306Z,8.03
2022-11-26T16:30:16.012Z,8.05
2022-11-26T16:34:18.263Z,7.99
2022-11-26T16:38:23.211Z,7.97
2022-11-26T16:42:25.268Z,7.91
2022-11-26T16:46:27.977Z,7.87
2022-11-26T16:50:30.221Z,7.84
2022-11-26T16:54:32.240Z,7.82
2022-11-26T16:58:36.405Z,7.79
2022-11-26T17:02:38.475Z,7.78
2022-11-26T17:06:41.547Z,7.78
2022-11-26T17:10:44.066Z,7.73
2022-11-26T17:14:46.973Z,7.73
2022-11-26T17:18:49.937Z,7.74
2022-11-26T17:22:52.026Z,7.71
2022-11-26T17:26:54.935Z,7.68
2022-11-26T17:30:57.092Z,7.65
2022-11-26T17:34:59.149Z,7.59
2022-11-26T17:39:01.170Z,7.58
2022-11-26T17:43:03.170Z,7.57
2022-11-26T17:47:17.964Z,7.55
2022-11-26T17:51:20.384Z,7.61
2022-11-26T17:55:24.339Z,7.62
2022-11-26T17:59:26.367Z,7.62
2022-11-26T18:03:28.363Z,7.60
2022-11-26T18:07:30.444Z,7.61
2022-11-26T18:11:49.952Z,7.60
2022-11-26T18:16:00.340Z,7.58
2022-11-26T18:20:02.415Z,7.57
2022-11-26T18:24:05.616Z,7.58
2022-11-26T18:28:07.636Z,7.54
2022-11-26T18:32:09.665Z,7.50
2022-11-26T18:36:11.955Z,7.47
2022-11-26T18:40:17.712Z,7.41
2022-11-26T18:44:19.753Z,7.47
2022-11-26T18:48:21.768Z,7.48
2022-11-26T18:52:23.782Z,7.43
2022-11-26T18:56:25.877Z,7.39
2022-11-26T19:00:27.953Z,7.44
2022-11-26T19:04:29.975Z,7.39
2022-11-26T19:08:32.633Z,7.31
2022-11-26T19:12:35.741Z,7.30
2022-11-26T19:16:37.738Z,7.39
2022-11-26T19:20:47.529Z,7.41
2022-11-26T19:24:49.550Z,7.37
2022-11-26T19:28:52.570Z,7.33
2022-11-26T19:32:54.573Z,7.32
2022-11-26T19:36:57.731Z,7.30
2022-11-26T19:41:01.105Z,7.29
2022-11-26T19:45:03.296Z,7.27
2022-11-26T19:49:05.303Z,7.21
2022-11-26T19:53:07.296Z,7.17
2022-11-26T19:57:09.319Z,7.17
2022-11-26T20:01:13.613Z,7.18
2022-11-26T20:05:15.876Z,7.15
2022-11-26T20:09:17.882Z,7.14
2022-11-26T20:13:19.878Z,7.14
2022-11-26T20:17:21.949Z,7.14
2022-11-26T20:21:26.723Z,7.16
2022-11-26T20:25:33.129Z,7.12
2022-11-26T20:29:35.133Z,7.09
2022-11-26T20:33:37.138Z,7.00
2022-11-26T20:37:39.166Z,6.94
2022-11-26T20:41:41.725Z,6.99
2022-11-26T20:45:43.731Z,6.94
2022-11-26T20:49:46.777Z,6.89
2022-11-26T20:53:50.513Z,6.84
2022-11-26T20:57:52.570Z,6.89
2022-11-26T21:01:54.768Z,6.95
2022-11-26T21:06:01.862Z,7.00
2022-11-26T21:10:04.121Z,7.06
2022-11-26T21:14:11.914Z,7.09
2022-11-26T21:18:16.882Z,7.13
2022-11-26T21:22:18.997Z,7.14
2022-11-26T21:26:26.314Z,7.14
2022-11-26T21:30:28.351Z,7.14
2022-11-26T21:34:30.372Z,7.15
2022-11-26T21:38:32.458Z,7.17
2022-11-26T21:42:34.509Z,7.18
2022-11-26T21:46:38.878Z,7.37
2022-11-26T21:50:41.124Z,7.40
2022-11-26T21:54:43.270Z,7.37
2022-11-26T21:58:45.789Z,7.35
2022-11-26T22:02:47.882Z,7.33
2022-11-26T22:06:50.040Z,7.31
2022-11-26T22:10:52.251Z,7.30
2022-11-26T22:14:54.257Z,7.25
2022-11-26T22:18:57.879Z,7.23
2022-11-26T22:22:59.901Z,7.20
2022-11-26T22:27:01.939Z,7.14
2022-11-26T22:31:22.562Z,7.18
2022-11-26T22:35:24.608Z,7.23
2022-11-26T22:39:26.634Z,7.32
2022-11-26T22:43:29.075Z,7.32
2022-11-26T22:47:31.074Z,7.29
2022-11-26T22:51:34.916Z,7.31
2022-11-26T22:55:36.930Z,7.26
2022-11-26T22:59:39.137Z,7.22
2022-11-26T23:03:41.451Z,7.14
2022-11-26T23:07:43.565Z,7.07
2022-11-26T23:11:45.727Z,7.03
2022-11-26T23:15:47.822Z,6.96
2022-11-26T23:19:49.864Z,6.87
2022-11-26T23:23:52.740Z,6.83
2022-11-26T23:27:55.045Z,6.74
2022-11-26T23:31:57.219Z,6.64
2022-11-26T23:35:59.703Z,6.59
2022-11-26T23:40:02.110Z,6.53
2022-11-26T23:44:04.242Z,6.49
2022-11-26T23:48:06.368Z,6.51
2022-11-26T23:52:08.376Z,6.60
2022-11-26T23:56:13.767Z,6.61
